sensor_id;sensor_type;location;lat;lon;timestamp;temperature;humidity
17938;DHT22;16051;53.024;8.630;2023-03-23T00:01:48;11.60;99.90
17938;DHT22;16051;53.024;8.630;2023-03-23T00:05:52;11.50;99.90
17938;DHT22;16051;53.024;8.630;2023-03-23T00:09:59;11.50;99.90
17938;DHT22;16051;53.024;8.630;2023-03-23T00:14:02;11.50;99.90
17938;DHT22;16051;53.024;8.630;2023-03-23T00:18:05;11.50;99.90
17938;DHT22;16051;53.024;8.630;2023-03-23T00:22:08;11.50;99.90
17938;DHT22;16051;53.024;8.630;2023-03-23T00:26:30;11.50;99.90
17938;DHT22;16051;53.024;8.630;2023-03-23T00:30:34;11.50;99.90
17938;DHT22;16051;53.024;8.630;2023-03-23T00:34:42;11.50;99.90
17938;DHT22;16051;53.024;8.630;2023-03-23T00:38:48;11.50;99.90
17938;DHT22;16051;53.024;8.630;2023-03-23T00:42:50;11.50;99.90
17938;DHT22;16051;53.024;8.630;2023-03-23T00:46:52;11.50;99.90
17938;DHT22;16051;53.024;8.630;2023-03-23T00:50:56;11.50;99.90
17938;DHT22;16051;53.024;8.630;2023-03-23T00:55:00;11.50;99.90
17938;DHT22;16051;53.024;8.630;2023-03-23T00:59:02;11.50;99.90
17938;DHT22;16051;53.024;8.630;2023-03-23T01:03:05;11.50;99.90
17938;DHT22;16051;53.024;8.630;2023-03-23T01:07:11;11.50;99.90
17938;DHT22;16051;53.024;8.630;2023-03-23T01:11:16;11.50;99.90
17938;DHT22;16051;53.024;8.630;2023-03-23T01:15:21;11.50;99.90
17938;DHT22;16051;53.024;8.630;2023-03-23T01:19:24;11.50;99.90
17938;DHT22;16051;53.024;8.630;2023-03-23T01:23:26;11.50;99.90
17938;DHT22;16051;53.024;8.630;2023-03-23T01:27:30;11.50;99.90
17938;DHT22;16051;53.024;8.630;2023-03-23T01:31:33;11.50;99.90
17938;DHT22;16051;53.024;8.630;2023-03-23T01:35:37;11.50;99.90
17938;DHT22;16051;53.024;8.630;2023-03-23T01:39:40;11.60;99.90
17938;DHT22;16051;53.024;8.630;2023-03-23T01:44:01;11.50;99.90
17938;DHT22;16051;53.024;8.630;2023-03-23T01:48:09;11.50;99.90
17938;DHT22;16051;53.024;8.630;2023-03-23T01:52:17;11.50;99.90
17938;DHT22;16051;53.024;8.630;2023-03-23T01:56:27;11.50;99.90
17938;DHT22;16051;53.024;8.630;2023-03-23T02:00:36;11.50;99.90
17938;DHT22;16051;53.024;8.630;2023-03-23T02:04:43;11.50;99.90
17938;DHT22;16051;53.024;8.630;2023-03-23T02:08:57;11.50;99.90
17938;DHT22;16051;53.024;8.630;2023-03-23T02:13:01;11.50;99.90
17938;DHT22;16051;53.024;8.630;2023-03-23T02:17:10;11.50;99.90
17938;DHT22;16051;53.024;8.630;2023-03-23T02:26:35;11.40;99.90
17938;DHT22;16051;53.024;8.630;2023-03-23T02:30:56;11.40;99.90
17938;DHT22;16051;53.024;8.630;2023-03-23T02:35:18;11.40;99.90
17938;DHT22;16051;53.024;8.630;2023-03-23T02:39:25;11.40;99.90
17938;DHT22;16051;53.024;8.630;2023-03-23T02:43:37;11.40;99.90
17938;DHT22;16051;53.024;8.630;2023-03-23T02:48:10;11.40;99.90
17938;DHT22;16051;53.024;8.630;2023-03-23T02:52:19;11.40;99.90
17938;DHT22;16051;53.024;8.630;2023-03-23T02:56:25;11.40;99.90
17938;DHT22;16051;53.024;8.630;2023-03-23T03:00:38;11.40;99.90
17938;DHT22;16051;53.024;8.630;2023-03-23T03:04:45;11.40;99.90
17938;DHT22;16051;53.024;8.630;2023-03-23T03:09:02;11.40;99.90
17938;DHT22;16051;53.024;8.630;2023-03-23T03:13:14;11.30;99.90
17938;DHT22;16051;53.024;8.630;2023-03-23T03:17:25;11.30;99.90
17938;DHT22;16051;53.024;8.630;2023-03-23T03:21:41;11.30;99.90
17938;DHT22;16051;53.024;8.630;2023-03-23T03:25:47;11.30;99.90
17938;DHT22;16051;53.024;8.630;2023-03-23T03:29:54;11.30;99.90
17938;DHT22;16051;53.024;8.630;2023-03-23T03:34:00;11.30;99.90
17938;DHT22;16051;53.024;8.630;2023-03-23T03:38:07;11.30;99.90
17938;DHT22;16051;53.024;8.630;2023-03-23T03:42:12;11.30;99.90
17938;DHT22;16051;53.024;8.630;2023-03-23T03:46:16;11.30;99.90
17938;DHT22;16051;53.024;8.630;2023-03-23T03:50:18;11.30;99.90
17938;DHT22;16051;53.024;8.630;2023-03-23T03:54:20;11.30;99.90
17938;DHT22;16051;53.024;8.630;2023-03-23T03:58:24;11.30;99.90
17938;DHT22;16051;53.024;8.630;2023-03-23T04:02:27;11.30;99.90
17938;DHT22;16051;53.024;8.630;2023-03-23T04:06:29;11.30;99.90
17938;DHT22;16051;53.024;8.630;2023-03-23T04:10:33;11.30;99.90
17938;DHT22;16051;53.024;8.630;2023-03-23T04:14:37;11.30;99.90
17938;DHT22;16051;53.024;8.630;2023-03-23T04:18:39;11.30;99.90
17938;DHT22;16051;53.024;8.630;2023-03-23T04:22:43;11.30;99.90
17938;DHT22;16051;53.024;8.630;2023-03-23T04:26:49;11.30;99.90
17938;DHT22;16051;53.024;8.630;2023-03-23T04:30:54;11.30;99.90
17938;DHT22;16051;53.024;8.630;2023-03-23T04:34:57;11.30;99.90
17938;DHT22;16051;53.024;8.630;2023-03-23T04:39:00;11.30;99.90
17938;DHT22;16051;53.024;8.630;2023-03-23T04:43:07;11.30;99.90
17938;DHT22;16051;53.024;8.630;2023-03-23T04:47:11;11.30;99.90
17938;DHT22;16051;53.024;8.630;2023-03-23T04:51:13;11.30;99.90
17938;DHT22;16051;53.024;8.630;2023-03-23T04:55:15;11.30;99.90
17938;DHT22;16051;53.024;8.630;2023-03-23T04:59:18;11.30;99.90
17938;DHT22;16051;53.024;8.630;2023-03-23T05:03:21;11.30;99.90
17938;DHT22;16051;53.024;8.630;2023-03-23T05:07:23;11.30;99.90
17938;DHT22;16051;53.024;8.630;2023-03-23T05:11:43;11.30;99.90
17938;DHT22;16051;53.024;8.630;2023-03-23T05:15:46;11.30;99.90
17938;DHT22;16051;53.024;8.630;2023-03-23T05:19:50;11.30;99.90
17938;DHT22;16051;53.024;8.630;2023-03-23T05:23:52;11.30;99.90
17938;DHT22;16051;53.024;8.630;2023-03-23T05:27:55;11.40;99.90
17938;DHT22;16051;53.024;8.630;2023-03-23T05:31:57;11.40;99.90
17938;DHT22;16051;53.024;8.630;2023-03-23T05:36:01;11.40;99.90
17938;DHT22;16051;53.024;8.630;2023-03-23T05:40:14;11.40;99.90
17938;DHT22;16051;53.024;8.630;2023-03-23T05:44:16;11.40;99.90
17938;DHT22;16051;53.024;8.630;2023-03-23T05:48:19;11.40;99.90
17938;DHT22;16051;53.024;8.630;2023-03-23T05:52:23;11.30;99.90
17938;DHT22;16051;53.024;8.630;2023-03-23T05:56:25;11.30;99.90
17938;DHT22;16051;53.024;8.630;2023-03-23T06:00:27;11.30;99.90
17938;DHT22;16051;53.024;8.630;2023-03-23T06:04:31;11.30;99.90
17938;DHT22;16051;53.024;8.630;2023-03-23T06:08:35;11.30;99.90
17938;DHT22;16051;53.024;8.630;2023-03-23T06:12:38;11.30;99.90
17938;DHT22;16051;53.024;8.630;2023-03-23T06:16:44;11.40;99.90
17938;DHT22;16051;53.024;8.630;2023-03-23T06:20:46;11.40;99.90
17938;DHT22;16051;53.024;8.630;2023-03-23T06:24:49;11.50;99.90
17938;DHT22;16051;53.024;8.630;2023-03-23T06:28:52;11.50;99.90
17938;DHT22;16051;53.024;8.630;2023-03-23T06:32:55;11.60;99.90
17938;DHT22;16051;53.024;8.630;2023-03-23T06:36:57;11.70;99.90
17938;DHT22;16051;53.024;8.630;2023-03-23T06:41:02;11.70;99.90
17938;DHT22;16051;53.024;8.630;2023-03-23T06:45:06;11.80;99.90
17938;DHT22;16051;53.024;8.630;2023-03-23T06:49:09;11.80;99.90
17938;DHT22;16051;53.024;8.630;2023-03-23T06:53:11;11.90;99.90
17938;DHT22;16051;53.024;8.630;2023-03-23T06:57:16;11.90;99.90
17938;DHT22;16051;53.024;8.630;2023-03-23T07:01:26;11.90;99.90
17938;DHT22;16051;53.024;8.630;2023-03-23T07:05:29;12.00;99.90
17938;DHT22;16051;53.024;8.630;2023-03-23T07:09:31;12.10;99.90
17938;DHT22;16051;53.024;8.630;2023-03-23T07:13:35;12.10;99.90
17938;DHT22;16051;53.024;8.630;2023-03-23T07:17:40;12.10;99.90
17938;DHT22;16051;53.024;8.630;2023-03-23T07:21:49;12.60;99.90
17938;DHT22;16051;53.024;8.630;2023-03-23T07:25:58;12.40;99.90
17938;DHT22;16051;53.024;8.630;2023-03-23T07:30:04;12.40;99.90
17938;DHT22;16051;53.024;8.630;2023-03-23T07:34:23;12.50;99.90
17938;DHT22;16051;53.024;8.630;2023-03-23T07:38:25;12.40;99.90
17938;DHT22;16051;53.024;8.630;2023-03-23T07:42:28;12.30;99.90
17938;DHT22;16051;53.024;8.630;2023-03-23T07:46:46;12.10;99.90
17938;DHT22;16051;53.024;8.630;2023-03-23T07:50:49;12.20;99.90
17938;DHT22;16051;53.024;8.630;2023-03-23T07:55:04;12.30;99.90
17938;DHT22;16051;53.024;8.630;2023-03-23T07:59:19;12.30;99.90
17938;DHT22;16051;53.024;8.630;2023-03-23T08:03:22;12.30;99.90
17938;DHT22;16051;53.024;8.630;2023-03-23T08:07:25;12.20;99.90
17938;DHT22;16051;53.024;8.630;2023-03-23T08:11:27;12.20;99.90
17938;DHT22;16051;53.024;8.630;2023-03-23T08:15:29;12.10;99.90
17938;DHT22;16051;53.024;8.630;2023-03-23T08:19:33;12.10;99.90
17938;DHT22;16051;53.024;8.630;2023-03-23T08:23:37;12.00;99.90
17938;DHT22;16051;53.024;8.630;2023-03-23T08:27:39;11.90;99.90
17938;DHT22;16051;53.024;8.630;2023-03-23T08:31:57;11.90;99.90
17938;DHT22;16051;53.024;8.630;2023-03-23T08:36:01;11.90;99.90
17938;DHT22;16051;53.024;8.630;2023-03-23T08:40:18;12.10;99.90
17938;DHT22;16051;53.024;8.630;2023-03-23T08:44:23;12.40;99.90
17938;DHT22;16051;53.024;8.630;2023-03-23T08:48:30;12.60;99.90
17938;DHT22;16051;53.024;8.630;2023-03-23T08:52:35;12.70;99.90
17938;DHT22;16051;53.024;8.630;2023-03-23T08:56:39;12.60;99.90
17938;DHT22;16051;53.024;8.630;2023-03-23T09:00:42;12.60;99.90
17938;DHT22;16051;53.024;8.630;2023-03-23T09:04:44;12.60;99.90
17938;DHT22;16051;53.024;8.630;2023-03-23T09:08:59;12.60;99.90
17938;DHT22;16051;53.024;8.630;2023-03-23T09:13:07;12.60;99.90
17938;DHT22;16051;53.024;8.630;2023-03-23T09:17:10;12.60;99.90
17938;DHT22;16051;53.024;8.630;2023-03-23T09:21:12;12.70;99.90
17938;DHT22;16051;53.024;8.630;2023-03-23T09:25:18;12.80;99.90
17938;DHT22;16051;53.024;8.630;2023-03-23T09:29:22;12.70;99.90
17938;DHT22;16051;53.024;8.630;2023-03-23T09:33:25;12.70;99.90
17938;DHT22;16051;53.024;8.630;2023-03-23T09:37:29;12.90;99.90
17938;DHT22;16051;53.024;8.630;2023-03-23T09:41:54;13.00;99.90
17938;DHT22;16051;53.024;8.630;2023-03-23T09:46:24;13.10;99.90
17938;DHT22;16051;53.024;8.630;2023-03-23T09:50:48;13.30;99.90
17938;DHT22;16051;53.024;8.630;2023-03-23T09:54:57;14.10;99.90
17938;DHT22;16051;53.024;8.630;2023-03-23T09:59:07;14.40;99.90
17938;DHT22;16051;53.024;8.630;2023-03-23T10:03:16;14.50;99.90
17938;DHT22;16051;53.024;8.630;2023-03-23T10:07:23;14.70;99.90
17938;DHT22;16051;53.024;8.630;2023-03-23T10:11:37;14.90;99.90
17938;DHT22;16051;53.024;8.630;2023-03-23T10:15:46;15.20;99.90
17938;DHT22;16051;53.024;8.630;2023-03-23T10:19:52;15.20;99.90
17938;DHT22;16051;53.024;8.630;2023-03-23T10:24:01;15.20;99.90
17938;DHT22;16051;53.024;8.630;2023-03-23T10:28:10;15.20;99.90
17938;DHT22;16051;53.024;8.630;2023-03-23T10:32:17;15.60;99.90
17938;DHT22;16051;53.024;8.630;2023-03-23T10:36:26;16.00;99.90
17938;DHT22;16051;53.024;8.630;2023-03-23T10:40:48;16.00;99.90
17938;DHT22;16051;53.024;8.630;2023-03-23T10:44:55;16.00;99.90
17938;DHT22;16051;53.024;8.630;2023-03-23T10:49:02;15.80;99.90
17938;DHT22;16051;53.024;8.630;2023-03-23T10:53:15;16.10;99.90
17938;DHT22;16051;53.024;8.630;2023-03-23T10:57:23;16.10;99.90
17938;DHT22;16051;53.024;8.630;2023-03-23T11:01:31;15.90;99.90
17938;DHT22;16051;53.024;8.630;2023-03-23T11:05:40;15.80;99.90
17938;DHT22;16051;53.024;8.630;2023-03-23T11:09:52;15.70;99.90
17938;DHT22;16051;53.024;8.630;2023-03-23T11:14:01;15.70;99.90
17938;DHT22;16051;53.024;8.630;2023-03-23T11:18:08;15.80;99.90
17938;DHT22;16051;53.024;8.630;2023-03-23T11:22:19;16.00;99.90
17938;DHT22;16051;53.024;8.630;2023-03-23T11:26:27;16.00;99.90
17938;DHT22;16051;53.024;8.630;2023-03-23T11:30:36;15.90;99.90
17938;DHT22;16051;53.024;8.630;2023-03-23T11:34:41;16.10;99.90
17938;DHT22;16051;53.024;8.630;2023-03-23T11:38:47;17.00;99.90
17938;DHT22;16051;53.024;8.630;2023-03-23T11:42:56;17.50;99.90
17938;DHT22;16051;53.024;8.630;2023-03-23T11:51:37;18.00;99.90
17938;DHT22;16051;53.024;8.630;2023-03-23T11:55:55;17.50;99.90
17938;DHT22;16051;53.024;8.630;2023-03-23T12:00:05;17.50;99.90
17938;DHT22;16051;53.024;8.630;2023-03-23T12:04:39;18.00;99.90
17938;DHT22;16051;53.024;8.630;2023-03-23T12:08:57;18.10;99.90
17938;DHT22;16051;53.024;8.630;2023-03-23T12:13:20;18.30;99.90
17938;DHT22;16051;53.024;8.630;2023-03-23T12:17:56;19.00;99.90
17938;DHT22;16051;53.024;8.630;2023-03-23T12:22:16;20.00;99.90
17938;DHT22;16051;53.024;8.630;2023-03-23T12:26:30;20.40;99.90
17938;DHT22;16051;53.024;8.630;2023-03-23T12:30:39;20.90;99.90
17938;DHT22;16051;53.024;8.630;2023-03-23T12:34:52;20.10;99.90
17938;DHT22;16051;53.024;8.630;2023-03-23T12:39:38;19.50;99.90
17938;DHT22;16051;53.024;8.630;2023-03-23T12:44:03;20.30;99.90
17938;DHT22;16051;53.024;8.630;2023-03-23T12:48:13;19.90;99.90
17938;DHT22;16051;53.024;8.630;2023-03-23T12:52:21;19.70;99.90
17938;DHT22;16051;53.024;8.630;2023-03-23T12:56:32;20.60;99.90
17938;DHT22;16051;53.024;8.630;2023-03-23T13:00:55;21.10;99.90
17938;DHT22;16051;53.024;8.630;2023-03-23T13:05:09;22.30;99.90
17938;DHT22;16051;53.024;8.630;2023-03-23T13:09:50;25.70;99.90
17938;DHT22;16051;53.024;8.630;2023-03-23T13:14:24;28.40;96.10
17938;DHT22;16051;53.024;8.630;2023-03-23T13:18:42;27.70;91.80
17938;DHT22;16051;53.024;8.630;2023-03-23T13:23:01;24.10;95.70
17938;DHT22;16051;53.024;8.630;2023-03-23T13:27:08;22.60;98.90
17938;DHT22;16051;53.024;8.630;2023-03-23T13:31:23;21.50;99.90
17938;DHT22;16051;53.024;8.630;2023-03-23T13:35:45;20.90;99.90
17938;DHT22;16051;53.024;8.630;2023-03-23T13:39:53;20.40;99.90
17938;DHT22;16051;53.024;8.630;2023-03-23T13:44:16;19.90;99.90
17938;DHT22;16051;53.024;8.630;2023-03-23T13:48:22;19.30;99.90
17938;DHT22;16051;53.024;8.630;2023-03-23T13:52:37;18.80;99.90
17938;DHT22;16051;53.024;8.630;2023-03-23T13:56:51;18.30;99.90
17938;DHT22;16051;53.024;8.630;2023-03-23T14:01:19;17.80;99.90
17938;DHT22;16051;53.024;8.630;2023-03-23T14:05:37;17.30;99.90
17938;DHT22;16051;53.024;8.630;2023-03-23T14:09:42;16.80;99.90
17938;DHT22;16051;53.024;8.630;2023-03-23T14:13:56;16.60;99.90
17938;DHT22;16051;53.024;8.630;2023-03-23T14:18:03;22.40;99.90
17938;DHT22;16051;53.024;8.630;2023-03-23T14:22:17;26.10;96.80
17938;DHT22;16051;53.024;8.630;2023-03-23T14:26:40;24.60;95.30
17938;DHT22;16051;53.024;8.630;2023-03-23T14:30:45;23.00;99.10
17938;DHT22;16051;53.024;8.630;2023-03-23T14:34:48;21.20;99.90
17938;DHT22;16051;53.024;8.630;2023-03-23T14:38:59;23.30;99.90
17938;DHT22;16051;53.024;8.630;2023-03-23T14:43:03;20.60;99.90
17938;DHT22;16051;53.024;8.630;2023-03-23T14:47:17;23.40;99.90
17938;DHT22;16051;53.024;8.630;2023-03-23T14:51:21;27.60;95.30
17938;DHT22;16051;53.024;8.630;2023-03-23T14:55:26;29.20;90.30
17938;DHT22;16051;53.024;8.630;2023-03-23T14:59:31;30.60;82.30
17938;DHT22;16051;53.024;8.630;2023-03-23T15:03:37;31.50;73.10
17938;DHT22;16051;53.024;8.630;2023-03-23T15:08:03;31.80;68.30
17938;DHT22;16051;53.024;8.630;2023-03-23T15:12:18;32.10;64.90
17938;DHT22;16051;53.024;8.630;2023-03-23T15:16:36;29.60;66.80
17938;DHT22;16051;53.024;8.630;2023-03-23T15:20:48;26.00;76.40
17938;DHT22;16051;53.024;8.630;2023-03-23T15:24:52;24.10;82.60
17938;DHT22;16051;53.024;8.630;2023-03-23T15:29:10;24.30;85.10
17938;DHT22;16051;53.024;8.630;2023-03-23T15:33:22;23.20;82.50
17938;DHT22;16051;53.024;8.630;2023-03-23T15:37:30;22.30;86.00
17938;DHT22;16051;53.024;8.630;2023-03-23T15:41:33;22.00;87.30
17938;DHT22;16051;53.024;8.630;2023-03-23T15:45:57;23.10;83.10
17938;DHT22;16051;53.024;8.630;2023-03-23T15:50:09;21.50;85.90
17938;DHT22;16051;53.024;8.630;2023-03-23T15:59:14;20.60;87.30
17938;DHT22;16051;53.024;8.630;2023-03-23T16:03:20;20.80;87.30
17938;DHT22;16051;53.024;8.630;2023-03-23T16:07:27;21.70;86.60
17938;DHT22;16051;53.024;8.630;2023-03-23T16:11:30;21.60;88.60
17938;DHT22;16051;53.024;8.630;2023-03-23T16:15:34;21.70;88.40
17938;DHT22;16051;53.024;8.630;2023-03-23T16:19:36;22.00;88.20
17938;DHT22;16051;53.024;8.630;2023-03-23T16:23:46;22.40;88.10
17938;DHT22;16051;53.024;8.630;2023-03-23T16:27:48;21.40;87.60
17938;DHT22;16051;53.024;8.630;2023-03-23T16:31:54;20.70;90.30
17938;DHT22;16051;53.024;8.630;2023-03-23T16:35:56;20.40;90.50
17938;DHT22;16051;53.024;8.630;2023-03-23T16:39:59;20.60;90.00
17938;DHT22;16051;53.024;8.630;2023-03-23T16:44:05;19.70;91.50
17938;DHT22;16051;53.024;8.630;2023-03-23T16:48:12;19.20;92.10
17938;DHT22;16051;53.024;8.630;2023-03-23T16:52:16;18.80;92.50
17938;DHT22;16051;53.024;8.630;2023-03-23T16:56:19;18.40;93.50
17938;DHT22;16051;53.024;8.630;2023-03-23T17:00:28;18.10;94.40
17938;DHT22;16051;53.024;8.630;2023-03-23T17:04:32;17.90;95.00
17938;DHT22;16051;53.024;8.630;2023-03-23T17:08:35;17.70;95.40
17938;DHT22;16051;53.024;8.630;2023-03-23T17:12:37;17.40;96.40
17938;DHT22;16051;53.024;8.630;2023-03-23T17:16:39;17.20;97.40
17938;DHT22;16051;53.024;8.630;2023-03-23T17:20:43;16.90;98.30
17938;DHT22;16051;53.024;8.630;2023-03-23T17:24:45;16.70;99.20
17938;DHT22;16051;53.024;8.630;2023-03-23T17:28:48;16.40;99.90
17938;DHT22;16051;53.024;8.630;2023-03-23T17:32:50;16.20;99.90
17938;DHT22;16051;53.024;8.630;2023-03-23T17:36:54;16.10;99.90
17938;DHT22;16051;53.024;8.630;2023-03-23T17:40:57;15.90;99.90
17938;DHT22;16051;53.024;8.630;2023-03-23T17:45:01;15.80;99.90
17938;DHT22;16051;53.024;8.630;2023-03-23T17:49:04;15.60;99.90
17938;DHT22;16051;53.024;8.630;2023-03-23T17:53:07;15.50;99.90
17938;DHT22;16051;53.024;8.630;2023-03-23T17:57:10;15.40;99.90
17938;DHT22;16051;53.024;8.630;2023-03-23T18:01:12;15.30;99.90
17938;DHT22;16051;53.024;8.630;2023-03-23T18:05:14;15.20;99.90
17938;DHT22;16051;53.024;8.630;2023-03-23T18:09:17;15.10;99.90
17938;DHT22;16051;53.024;8.630;2023-03-23T18:13:20;15.00;99.90
17938;DHT22;16051;53.024;8.630;2023-03-23T18:17:22;14.90;99.90
17938;DHT22;16051;53.024;8.630;2023-03-23T18:21:24;14.80;99.90
17938;DHT22;16051;53.024;8.630;2023-03-23T18:25:28;14.80;99.90
17938;DHT22;16051;53.024;8.630;2023-03-23T18:29:30;14.70;99.90
17938;DHT22;16051;53.024;8.630;2023-03-23T18:33:34;14.60;99.90
17938;DHT22;16051;53.024;8.630;2023-03-23T18:37:37;14.60;99.90
17938;DHT22;16051;53.024;8.630;2023-03-23T18:41:41;14.50;99.90
17938;DHT22;16051;53.024;8.630;2023-03-23T18:45:48;14.40;99.90
17938;DHT22;16051;53.024;8.630;2023-03-23T18:49:51;14.30;99.90
17938;DHT22;16051;53.024;8.630;2023-03-23T18:53:54;14.30;99.90
17938;DHT22;16051;53.024;8.630;2023-03-23T18:57:58;14.20;99.90
17938;DHT22;16051;53.024;8.630;2023-03-23T19:02:00;14.10;99.90
17938;DHT22;16051;53.024;8.630;2023-03-23T19:06:03;14.10;99.90
17938;DHT22;16051;53.024;8.630;2023-03-23T19:10:06;14.00;99.90
17938;DHT22;16051;53.024;8.630;2023-03-23T19:14:10;14.00;99.90
17938;DHT22;16051;53.024;8.630;2023-03-23T19:18:14;13.90;99.90
17938;DHT22;16051;53.024;8.630;2023-03-23T19:22:16;13.90;99.90
17938;DHT22;16051;53.024;8.630;2023-03-23T19:26:22;13.80;99.90
17938;DHT22;16051;53.024;8.630;2023-03-23T19:30:26;13.70;99.90
17938;DHT22;16051;53.024;8.630;2023-03-23T19:34:28;13.70;99.90
17938;DHT22;16051;53.024;8.630;2023-03-23T19:38:31;13.60;99.90
17938;DHT22;16051;53.024;8.630;2023-03-23T19:42:34;13.50;99.90
17938;DHT22;16051;53.024;8.630;2023-03-23T19:46:37;13.40;99.90
17938;DHT22;16051;53.024;8.630;2023-03-23T19:50:39;13.40;99.90
17938;DHT22;16051;53.024;8.630;2023-03-23T19:54:42;13.30;99.90
17938;DHT22;16051;53.024;8.630;2023-03-23T19:58:44;13.30;99.90
17938;DHT22;16051;53.024;8.630;2023-03-23T20:02:48;13.20;99.90
17938;DHT22;16051;53.024;8.630;2023-03-23T20:06:50;13.20;99.90
17938;DHT22;16051;53.024;8.630;2023-03-23T20:11:00;13.10;99.90
17938;DHT22;16051;53.024;8.630;2023-03-23T20:15:04;13.10;99.90
17938;DHT22;16051;53.024;8.630;2023-03-23T20:19:09;13.10;99.90
17938;DHT22;16051;53.024;8.630;2023-03-23T20:23:11;13.00;99.90
17938;DHT22;16051;53.024;8.630;2023-03-23T20:27:13;13.00;99.90
17938;DHT22;16051;53.024;8.630;2023-03-23T20:31:17;12.90;99.90
17938;DHT22;16051;53.024;8.630;2023-03-23T20:35:23;12.90;99.90
17938;DHT22;16051;53.024;8.630;2023-03-23T20:39:26;12.90;99.90
17938;DHT22;16051;53.024;8.630;2023-03-23T20:43:30;12.80;99.90
17938;DHT22;16051;53.024;8.630;2023-03-23T20:47:33;12.80;99.90
17938;DHT22;16051;53.024;8.630;2023-03-23T20:51:36;12.80;99.90
17938;DHT22;16051;53.024;8.630;2023-03-23T20:55:39;12.80;99.90
17938;DHT22;16051;53.024;8.630;2023-03-23T20:59:41;12.70;99.90
17938;DHT22;16051;53.024;8.630;2023-03-23T21:03:43;12.70;99.90
17938;DHT22;16051;53.024;8.630;2023-03-23T21:07:47;12.70;99.90
17938;DHT22;16051;53.024;8.630;2023-03-23T21:11:50;12.70;99.90
17938;DHT22;16051;53.024;8.630;2023-03-23T21:15:52;12.70;99.90
17938;DHT22;16051;53.024;8.630;2023-03-23T21:19:55;12.70;99.90
17938;DHT22;16051;53.024;8.630;2023-03-23T21:23:58;12.60;99.90
17938;DHT22;16051;53.024;8.630;2023-03-23T21:28:01;12.60;99.90
17938;DHT22;16051;53.024;8.630;2023-03-23T21:32:04;12.60;99.90
17938;DHT22;16051;53.024;8.630;2023-03-23T21:36:07;12.60;99.90
17938;DHT22;16051;53.024;8.630;2023-03-23T21:40:13;12.60;99.90
17938;DHT22;16051;53.024;8.630;2023-03-23T21:44:17;12.50;99.90
17938;DHT22;16051;53.024;8.630;2023-03-23T21:48:19;12.50;99.90
17938;DHT22;16051;53.024;8.630;2023-03-23T21:52:40;12.50;99.90
17938;DHT22;16051;53.024;8.630;2023-03-23T21:56:44;12.50;99.90
17938;DHT22;16051;53.024;8.630;2023-03-23T22:00:47;12.50;99.90
17938;DHT22;16051;53.024;8.630;2023-03-23T22:04:55;12.50;99.90
17938;DHT22;16051;53.024;8.630;2023-03-23T22:08:57;12.40;99.90
17938;DHT22;16051;53.024;8.630;2023-03-23T22:13:01;12.50;99.90
17938;DHT22;16051;53.024;8.630;2023-03-23T22:17:11;12.50;99.90
17938;DHT22;16051;53.024;8.630;2023-03-23T22:21:36;12.40;99.90
17938;DHT22;16051;53.024;8.630;2023-03-23T22:25:38;12.40;99.90
17938;DHT22;16051;53.024;8.630;2023-03-23T22:29:42;12.50;99.90
17938;DHT22;16051;53.024;8.630;2023-03-23T22:44:17;12.60;99.90
17938;DHT22;16051;53.024;8.630;2023-03-23T22:48:53;12.60;99.90
17938;DHT22;16051;53.024;8.630;2023-03-23T22:52:55;12.60;99.90
17938;DHT22;16051;53.024;8.630;2023-03-23T22:56:58;12.60;99.90
17938;DHT22;16051;53.024;8.630;2023-03-23T23:01:01;12.60;99.90
17938;DHT22;16051;53.024;8.630;2023-03-23T23:05:07;12.60;99.90
17938;DHT22;16051;53.024;8.630;2023-03-23T23:09:10;12.50;99.90
17938;DHT22;16051;53.024;8.630;2023-03-23T23:13:12;12.60;99.90
17938;DHT22;16051;53.024;8.630;2023-03-23T23:17:15;12.50;99.90
17938;DHT22;16051;53.024;8.630;2023-03-23T23:21:20;12.50;99.90
17938;DHT22;16051;53.024;8.630;2023-03-23T23:25:23;12.40;99.90
17938;DHT22;16051;53.024;8.630;2023-03-23T23:29:26;12.50;99.90
17938;DHT22;16051;53.024;8.630;2023-03-23T23:39:04;12.50;99.90
17938;DHT22;16051;53.024;8.630;2023-03-23T23:43:07;12.40;99.90
17938;DHT22;16051;53.024;8.630;2023-03-23T23:47:14;12.40;99.90
17938;DHT22;16051;53.024;8.630;2023-03-23T23:51:17;12.40;99.90
17938;DHT22;16051;53.024;8.630;2023-03-23T23:55:21;12.30;99.90
17938;DHT22;16051;53.024;8.630;2023-03-23T23:59:24;12.30;99.90
